Weather at Amsterdam Airport Schiphol

Public forecast

Using degrees Celsius for public forecast. Weather courtesy of forecast.io.

Current aviation weather report (METAR) for Amsterdam Airport Schiphol

Retrieved 2020/10/23 23:25 UTC (21 minutes ago):

EHAM 232325Z 20011KT 9999 FEW017 SCT025 12/11 Q1009 NOSIG

Aviation forecast (TAF) for Amsterdam Airport Schiphol

Retrieved 2020/10/23 18:27 UTC (5 hours ago):

TAF TAF EHAM 231704Z 2318/2424 22012KT 9999 FEW020 PROB30 TEMPO 2318/2410 24013G23KT 6000 SHRA RA BKN014 FEW020TCU BECMG 2409/2412 20017KT BECMG 2418/2421 19021G31KT